sensor_id;sensor_type;location;lat;lon;timestamp;temperature;humidity
5796;DHT22;2924;51.458;7.046;2022-08-21T00:00:08;17.10;99.90
5796;DHT22;2924;51.458;7.046;2022-08-21T00:02:35;17.10;99.90
5796;DHT22;2924;51.458;7.046;2022-08-21T00:05:01;17.10;99.90
5796;DHT22;2924;51.458;7.046;2022-08-21T00:07:26;17.10;99.90
5796;DHT22;2924;51.458;7.046;2022-08-21T00:09:52;17.10;99.90
5796;DHT22;2924;51.458;7.046;2022-08-21T00:12:19;16.90;99.90
5796;DHT22;2924;51.458;7.046;2022-08-21T00:14:44;16.70;99.90
5796;DHT22;2924;51.458;7.046;2022-08-21T00:17:10;16.60;99.90
5796;DHT22;2924;51.458;7.046;2022-08-21T00:19:36;16.40;99.90
5796;DHT22;2924;51.458;7.046;2022-08-21T00:22:01;16.30;99.90
5796;DHT22;2924;51.458;7.046;2022-08-21T00:24:27;16.20;99.90
5796;DHT22;2924;51.458;7.046;2022-08-21T00:26:53;16.10;99.90
5796;DHT22;2924;51.458;7.046;2022-08-21T00:29:19;16.10;99.90
5796;DHT22;2924;51.458;7.046;2022-08-21T00:31:45;16.10;99.90
5796;DHT22;2924;51.458;7.046;2022-08-21T00:34:12;16.20;99.90
5796;DHT22;2924;51.458;7.046;2022-08-21T00:36:38;16.20;99.90
5796;DHT22;2924;51.458;7.046;2022-08-21T00:39:06;16.10;99.90
5796;DHT22;2924;51.458;7.046;2022-08-21T00:41:32;16.20;99.90
5796;DHT22;2924;51.458;7.046;2022-08-21T00:43:57;16.20;99.90
5796;DHT22;2924;51.458;7.046;2022-08-21T00:46:23;16.30;99.90
5796;DHT22;2924;51.458;7.046;2022-08-21T00:48:49;16.20;99.90
5796;DHT22;2924;51.458;7.046;2022-08-21T00:51:32;16.10;99.90
5796;DHT22;2924;51.458;7.046;2022-08-21T00:54:01;16.00;99.90
5796;DHT22;2924;51.458;7.046;2022-08-21T00:56:27;16.00;99.90
5796;DHT22;2924;51.458;7.046;2022-08-21T00:58:56;15.90;99.90
5796;DHT22;2924;51.458;7.046;2022-08-21T01:01:22;16.00;99.90
5796;DHT22;2924;51.458;7.046;2022-08-21T01:03:48;16.00;99.90
5796;DHT22;2924;51.458;7.046;2022-08-21T01:06:14;15.90;99.90
5796;DHT22;2924;51.458;7.046;2022-08-21T01:08:41;15.90;99.90
5796;DHT22;2924;51.458;7.046;2022-08-21T01:11:07;15.90;99.90
5796;DHT22;2924;51.458;7.046;2022-08-21T01:13:36;15.90;99.90
5796;DHT22;2924;51.458;7.046;2022-08-21T01:16:04;15.80;99.90
5796;DHT22;2924;51.458;7.046;2022-08-21T01:18:30;15.80;99.90
5796;DHT22;2924;51.458;7.046;2022-08-21T01:21:14;15.70;99.90
5796;DHT22;2924;51.458;7.046;2022-08-21T01:23:43;15.60;99.90
5796;DHT22;2924;51.458;7.046;2022-08-21T01:26:10;15.60;99.90
5796;DHT22;2924;51.458;7.046;2022-08-21T01:28:44;15.50;99.90
5796;DHT22;2924;51.458;7.046;2022-08-21T01:31:12;15.40;99.90
5796;DHT22;2924;51.458;7.046;2022-08-21T01:33:39;15.40;99.90
5796;DHT22;2924;51.458;7.046;2022-08-21T01:36:05;15.30;99.90
5796;DHT22;2924;51.458;7.046;2022-08-21T01:38:31;15.20;99.90
5796;DHT22;2924;51.458;7.046;2022-08-21T01:40:57;15.20;99.90
5796;DHT22;2924;51.458;7.046;2022-08-21T01:43:23;15.10;99.90
5796;DHT22;2924;51.458;7.046;2022-08-21T01:45:49;15.00;99.90
5796;DHT22;2924;51.458;7.046;2022-08-21T01:48:15;15.00;99.90
5796;DHT22;2924;51.458;7.046;2022-08-21T01:50:41;14.90;99.90
5796;DHT22;2924;51.458;7.046;2022-08-21T01:53:07;14.80;99.90
5796;DHT22;2924;51.458;7.046;2022-08-21T01:55:32;14.80;99.90
5796;DHT22;2924;51.458;7.046;2022-08-21T01:57:59;14.80;99.90
5796;DHT22;2924;51.458;7.046;2022-08-21T02:00:25;14.70;99.90
5796;DHT22;2924;51.458;7.046;2022-08-21T02:02:51;14.70;99.90
5796;DHT22;2924;51.458;7.046;2022-08-21T02:05:18;14.60;99.90
5796;DHT22;2924;51.458;7.046;2022-08-21T02:07:49;14.60;99.90
5796;DHT22;2924;51.458;7.046;2022-08-21T02:10:18;14.60;99.90
5796;DHT22;2924;51.458;7.046;2022-08-21T02:12:44;14.60;99.90
5796;DHT22;2924;51.458;7.046;2022-08-21T02:15:10;14.60;99.90
5796;DHT22;2924;51.458;7.046;2022-08-21T02:17:51;14.50;99.90
5796;DHT22;2924;51.458;7.046;2022-08-21T02:20:29;14.60;99.90
5796;DHT22;2924;51.458;7.046;2022-08-21T02:22:55;14.50;99.90
5796;DHT22;2924;51.458;7.046;2022-08-21T02:25:23;14.50;99.90
5796;DHT22;2924;51.458;7.046;2022-08-21T02:27:49;14.50;99.90
5796;DHT22;2924;51.458;7.046;2022-08-21T02:30:23;14.50;99.90
5796;DHT22;2924;51.458;7.046;2022-08-21T02:32:49;14.40;99.90
5796;DHT22;2924;51.458;7.046;2022-08-21T02:35:16;14.50;99.90
5796;DHT22;2924;51.458;7.046;2022-08-21T02:37:55;14.40;99.90
5796;DHT22;2924;51.458;7.046;2022-08-21T02:40:25;14.40;99.90
5796;DHT22;2924;51.458;7.046;2022-08-21T02:42:51;14.40;99.90
5796;DHT22;2924;51.458;7.046;2022-08-21T02:45:17;14.40;99.90
5796;DHT22;2924;51.458;7.046;2022-08-21T02:47:51;14.30;99.90
5796;DHT22;2924;51.458;7.046;2022-08-21T02:50:20;14.40;99.90
5796;DHT22;2924;51.458;7.046;2022-08-21T02:52:46;14.30;99.90
5796;DHT22;2924;51.458;7.046;2022-08-21T02:55:12;14.30;99.90
5796;DHT22;2924;51.458;7.046;2022-08-21T02:57:38;14.30;99.90
5796;DHT22;2924;51.458;7.046;2022-08-21T03:00:05;14.30;99.90
5796;DHT22;2924;51.458;7.046;2022-08-21T03:02:31;14.30;99.90
5796;DHT22;2924;51.458;7.046;2022-08-21T03:04:56;14.30;99.90
5796;DHT22;2924;51.458;7.046;2022-08-21T03:07:22;14.30;99.90
5796;DHT22;2924;51.458;7.046;2022-08-21T03:09:48;14.40;99.90
5796;DHT22;2924;51.458;7.046;2022-08-21T03:12:14;14.40;99.90
5796;DHT22;2924;51.458;7.046;2022-08-21T03:14:40;14.40;99.90
5796;DHT22;2924;51.458;7.046;2022-08-21T03:17:05;14.40;99.90
5796;DHT22;2924;51.458;7.046;2022-08-21T03:19:32;14.40;99.90
5796;DHT22;2924;51.458;7.046;2022-08-21T03:21:58;14.50;99.90
5796;DHT22;2924;51.458;7.046;2022-08-21T03:24:23;14.50;99.90
5796;DHT22;2924;51.458;7.046;2022-08-21T03:26:49;14.40;99.90
5796;DHT22;2924;51.458;7.046;2022-08-21T03:29:15;14.50;99.90
5796;DHT22;2924;51.458;7.046;2022-08-21T03:31:41;14.50;99.90
5796;DHT22;2924;51.458;7.046;2022-08-21T03:34:06;14.50;99.90
5796;DHT22;2924;51.458;7.046;2022-08-21T03:36:32;14.40;99.90
5796;DHT22;2924;51.458;7.046;2022-08-21T03:38:58;14.50;99.90
5796;DHT22;2924;51.458;7.046;2022-08-21T03:41:24;14.50;99.90
5796;DHT22;2924;51.458;7.046;2022-08-21T03:43:49;14.40;99.90
5796;DHT22;2924;51.458;7.046;2022-08-21T03:46:15;14.40;99.90
5796;DHT22;2924;51.458;7.046;2022-08-21T03:48:41;14.40;99.90
5796;DHT22;2924;51.458;7.046;2022-08-21T03:51:06;14.40;99.90
5796;DHT22;2924;51.458;7.046;2022-08-21T03:53:33;14.40;99.90
5796;DHT22;2924;51.458;7.046;2022-08-21T03:55:59;14.40;99.90
5796;DHT22;2924;51.458;7.046;2022-08-21T03:58:27;14.40;99.90
5796;DHT22;2924;51.458;7.046;2022-08-21T04:00:55;14.40;99.90
5796;DHT22;2924;51.458;7.046;2022-08-21T04:03:22;14.40;99.90
5796;DHT22;2924;51.458;7.046;2022-08-21T04:05:47;14.20;99.90
5796;DHT22;2924;51.458;7.046;2022-08-21T04:08:14;14.20;99.90
5796;DHT22;2924;51.458;7.046;2022-08-21T04:10:41;14.00;99.90
5796;DHT22;2924;51.458;7.046;2022-08-21T04:13:08;13.80;99.90
5796;DHT22;2924;51.458;7.046;2022-08-21T04:15:35;13.70;99.90
5796;DHT22;2924;51.458;7.046;2022-08-21T04:18:01;13.60;99.90
5796;DHT22;2924;51.458;7.046;2022-08-21T04:20:27;13.60;99.90
5796;DHT22;2924;51.458;7.046;2022-08-21T04:22:53;13.70;99.90
5796;DHT22;2924;51.458;7.046;2022-08-21T04:25:21;13.60;99.90
5796;DHT22;2924;51.458;7.046;2022-08-21T04:27:47;13.50;99.90
5796;DHT22;2924;51.458;7.046;2022-08-21T04:30:15;13.50;99.90
5796;DHT22;2924;51.458;7.046;2022-08-21T04:32:45;13.40;99.90
5796;DHT22;2924;51.458;7.046;2022-08-21T04:35:13;13.30;99.90
5796;DHT22;2924;51.458;7.046;2022-08-21T04:37:39;13.20;99.90
5796;DHT22;2924;51.458;7.046;2022-08-21T04:40:06;13.20;99.90
5796;DHT22;2924;51.458;7.046;2022-08-21T04:42:50;13.40;99.90
5796;DHT22;2924;51.458;7.046;2022-08-21T04:45:23;13.50;99.90
5796;DHT22;2924;51.458;7.046;2022-08-21T04:47:51;13.60;99.90
5796;DHT22;2924;51.458;7.046;2022-08-21T04:50:17;13.80;99.90
5796;DHT22;2924;51.458;7.046;2022-08-21T04:52:43;13.90;99.90
5796;DHT22;2924;51.458;7.046;2022-08-21T04:55:10;14.00;99.90
5796;DHT22;2924;51.458;7.046;2022-08-21T04:57:37;14.00;99.90
5796;DHT22;2924;51.458;7.046;2022-08-21T05:00:05;14.10;99.90
5796;DHT22;2924;51.458;7.046;2022-08-21T05:02:31;14.20;99.90
5796;DHT22;2924;51.458;7.046;2022-08-21T05:04:59;14.20;99.90
5796;DHT22;2924;51.458;7.046;2022-08-21T05:07:28;14.20;99.90
5796;DHT22;2924;51.458;7.046;2022-08-21T05:09:55;14.20;99.90
5796;DHT22;2924;51.458;7.046;2022-08-21T05:12:21;14.40;99.90
5796;DHT22;2924;51.458;7.046;2022-08-21T05:14:47;14.70;99.90
5796;DHT22;2924;51.458;7.046;2022-08-21T05:17:13;14.90;99.90
5796;DHT22;2924;51.458;7.046;2022-08-21T05:19:39;15.00;99.90
5796;DHT22;2924;51.458;7.046;2022-08-21T05:22:05;15.10;99.90
5796;DHT22;2924;51.458;7.046;2022-08-21T05:24:31;15.30;99.90
5796;DHT22;2924;51.458;7.046;2022-08-21T05:26:58;15.40;99.90
5796;DHT22;2924;51.458;7.046;2022-08-21T05:29:24;15.50;99.90
5796;DHT22;2924;51.458;7.046;2022-08-21T05:31:50;15.50;99.90
5796;DHT22;2924;51.458;7.046;2022-08-21T05:34:22;15.50;99.90
5796;DHT22;2924;51.458;7.046;2022-08-21T05:36:48;15.60;99.90
5796;DHT22;2924;51.458;7.046;2022-08-21T05:39:14;15.70;99.90
5796;DHT22;2924;51.458;7.046;2022-08-21T05:41:40;16.00;99.90
5796;DHT22;2924;51.458;7.046;2022-08-21T05:44:06;16.10;99.90
5796;DHT22;2924;51.458;7.046;2022-08-21T05:46:31;16.30;99.90
5796;DHT22;2924;51.458;7.046;2022-08-21T05:48:57;16.40;99.90
5796;DHT22;2924;51.458;7.046;2022-08-21T05:51:23;16.40;99.90
5796;DHT22;2924;51.458;7.046;2022-08-21T05:53:49;16.50;99.90
5796;DHT22;2924;51.458;7.046;2022-08-21T05:56:15;16.60;99.90
5796;DHT22;2924;51.458;7.046;2022-08-21T05:58:41;16.70;99.90
5796;DHT22;2924;51.458;7.046;2022-08-21T06:01:07;16.80;99.90
5796;DHT22;2924;51.458;7.046;2022-08-21T06:03:37;16.90;99.90
5796;DHT22;2924;51.458;7.046;2022-08-21T06:06:03;16.90;99.90
5796;DHT22;2924;51.458;7.046;2022-08-21T06:08:29;17.00;99.90
5796;DHT22;2924;51.458;7.046;2022-08-21T06:10:57;17.10;99.90
5796;DHT22;2924;51.458;7.046;2022-08-21T06:13:24;17.20;99.90
5796;DHT22;2924;51.458;7.046;2022-08-21T06:16:00;17.40;99.90
5796;DHT22;2924;51.458;7.046;2022-08-21T06:18:25;17.50;99.90
5796;DHT22;2924;51.458;7.046;2022-08-21T06:20:51;17.70;99.90
5796;DHT22;2924;51.458;7.046;2022-08-21T06:23:17;17.90;99.90
5796;DHT22;2924;51.458;7.046;2022-08-21T06:25:42;18.00;99.90
5796;DHT22;2924;51.458;7.046;2022-08-21T06:28:09;18.20;99.90
5796;DHT22;2924;51.458;7.046;2022-08-21T06:30:36;18.30;99.90
5796;DHT22;2924;51.458;7.046;2022-08-21T06:33:03;18.40;99.90
5796;DHT22;2924;51.458;7.046;2022-08-21T06:35:30;18.50;99.90
5796;DHT22;2924;51.458;7.046;2022-08-21T06:37:56;18.70;99.90
5796;DHT22;2924;51.458;7.046;2022-08-21T06:40:22;18.80;99.90
5796;DHT22;2924;51.458;7.046;2022-08-21T06:42:48;19.00;99.90
5796;DHT22;2924;51.458;7.046;2022-08-21T06:45:14;19.10;99.90
5796;DHT22;2924;51.458;7.046;2022-08-21T06:47:40;19.30;99.90
5796;DHT22;2924;51.458;7.046;2022-08-21T06:50:06;19.60;99.90
5796;DHT22;2924;51.458;7.046;2022-08-21T06:52:34;19.80;99.90
5796;DHT22;2924;51.458;7.046;2022-08-21T06:54:59;20.20;99.90
5796;DHT22;2924;51.458;7.046;2022-08-21T06:57:25;20.80;99.90
5796;DHT22;2924;51.458;7.046;2022-08-21T06:59:51;21.40;99.90
5796;DHT22;2924;51.458;7.046;2022-08-21T07:02:17;22.10;99.90
5796;DHT22;2924;51.458;7.046;2022-08-21T07:04:43;22.60;99.90
5796;DHT22;2924;51.458;7.046;2022-08-21T07:07:09;23.10;99.90
5796;DHT22;2924;51.458;7.046;2022-08-21T07:09:35;23.30;99.90
5796;DHT22;2924;51.458;7.046;2022-08-21T07:12:02;23.50;99.90
5796;DHT22;2924;51.458;7.046;2022-08-21T07:14:28;23.90;99.90
5796;DHT22;2924;51.458;7.046;2022-08-21T07:16:53;24.50;99.90
5796;DHT22;2924;51.458;7.046;2022-08-21T07:19:20;24.80;99.90
5796;DHT22;2924;51.458;7.046;2022-08-21T07:21:46;25.30;99.80
5796;DHT22;2924;51.458;7.046;2022-08-21T07:24:12;26.00;98.80
5796;DHT22;2924;51.458;7.046;2022-08-21T07:26:37;26.20;98.00
5796;DHT22;2924;51.458;7.046;2022-08-21T07:29:04;26.60;96.90
5796;DHT22;2924;51.458;7.046;2022-08-21T07:31:30;27.00;96.60
5796;DHT22;2924;51.458;7.046;2022-08-21T07:33:56;27.20;95.70
5796;DHT22;2924;51.458;7.046;2022-08-21T07:36:22;27.60;95.20
5796;DHT22;2924;51.458;7.046;2022-08-21T07:38:48;28.00;94.40
5796;DHT22;2924;51.458;7.046;2022-08-21T07:41:23;28.10;93.80
5796;DHT22;2924;51.458;7.046;2022-08-21T07:43:48;28.00;94.00
5796;DHT22;2924;51.458;7.046;2022-08-21T07:46:14;28.20;93.70
5796;DHT22;2924;51.458;7.046;2022-08-21T07:48:40;28.50;93.30
5796;DHT22;2924;51.458;7.046;2022-08-21T07:51:10;28.50;92.90
5796;DHT22;2924;51.458;7.046;2022-08-21T07:53:37;28.20;93.20
5796;DHT22;2924;51.458;7.046;2022-08-21T07:56:04;28.60;93.20
5796;DHT22;2924;51.458;7.046;2022-08-21T07:58:31;28.90;92.70
5796;DHT22;2924;51.458;7.046;2022-08-21T08:00:57;28.80;92.10
5796;DHT22;2924;51.458;7.046;2022-08-21T08:03:23;28.80;92.20
5796;DHT22;2924;51.458;7.046;2022-08-21T08:05:49;28.60;91.80
5796;DHT22;2924;51.458;7.046;2022-08-21T08:08:15;28.40;92.10
5796;DHT22;2924;51.458;7.046;2022-08-21T08:10:41;27.90;91.90
5796;DHT22;2924;51.458;7.046;2022-08-21T08:13:07;27.50;92.30
5796;DHT22;2924;51.458;7.046;2022-08-21T08:15:32;26.70;92.90
5796;DHT22;2924;51.458;7.046;2022-08-21T08:17:59;26.60;93.10
5796;DHT22;2924;51.458;7.046;2022-08-21T08:20:26;26.50;93.20
5796;DHT22;2924;51.458;7.046;2022-08-21T08:22:53;26.80;93.10
5796;DHT22;2924;51.458;7.046;2022-08-21T08:25:21;27.10;92.50
5796;DHT22;2924;51.458;7.046;2022-08-21T08:27:48;27.10;92.70
5796;DHT22;2924;51.458;7.046;2022-08-21T08:30:16;27.70;92.30
5796;DHT22;2924;51.458;7.046;2022-08-21T08:32:42;28.20;91.60
5796;DHT22;2924;51.458;7.046;2022-08-21T08:35:08;28.60;91.00
5796;DHT22;2924;51.458;7.046;2022-08-21T08:37:34;29.00;90.60
5796;DHT22;2924;51.458;7.046;2022-08-21T08:40:04;29.20;90.50
5796;DHT22;2924;51.458;7.046;2022-08-21T08:42:35;29.70;90.60
5796;DHT22;2924;51.458;7.046;2022-08-21T08:45:12;30.40;88.90
5796;DHT22;2924;51.458;7.046;2022-08-21T08:47:42;29.80;89.00
5796;DHT22;2924;51.458;7.046;2022-08-21T08:53:03;29.00;90.40
5796;DHT22;2924;51.458;7.046;2022-08-21T08:57:56;28.70;90.20
5796;DHT22;2924;51.458;7.046;2022-08-21T09:00:23;29.20;90.30
5796;DHT22;2924;51.458;7.046;2022-08-21T09:02:54;29.90;89.60
5796;DHT22;2924;51.458;7.046;2022-08-21T09:05:45;30.20;87.70
5796;DHT22;2924;51.458;7.046;2022-08-21T09:08:31;30.10;88.10
5796;DHT22;2924;51.458;7.046;2022-08-21T09:11:28;30.40;88.00
5796;DHT22;2924;51.458;7.046;2022-08-21T09:13:57;30.70;86.50
5796;DHT22;2924;51.458;7.046;2022-08-21T09:18:57;31.00;86.00
5796;DHT22;2924;51.458;7.046;2022-08-21T09:26:49;30.50;85.10
5796;DHT22;2924;51.458;7.046;2022-08-21T09:29:22;30.10;84.20
5796;DHT22;2924;51.458;7.046;2022-08-21T09:31:49;29.80;85.00
5796;DHT22;2924;51.458;7.046;2022-08-21T09:34:25;29.60;86.20
5796;DHT22;2924;51.458;7.046;2022-08-21T09:36:51;29.50;85.30
5796;DHT22;2924;51.458;7.046;2022-08-21T09:39:25;29.40;85.70
5796;DHT22;2924;51.458;7.046;2022-08-21T09:42:03;29.40;85.20
5796;DHT22;2924;51.458;7.046;2022-08-21T09:44:32;29.40;85.40
5796;DHT22;2924;51.458;7.046;2022-08-21T09:46:59;29.60;85.10
5796;DHT22;2924;51.458;7.046;2022-08-21T09:49:29;29.80;84.30
5796;DHT22;2924;51.458;7.046;2022-08-21T09:51:56;30.00;84.10
5796;DHT22;2924;51.458;7.046;2022-08-21T09:54:29;30.00;84.00
5796;DHT22;2924;51.458;7.046;2022-08-21T09:56:58;30.10;83.90
5796;DHT22;2924;51.458;7.046;2022-08-21T09:59:44;30.00;84.50
5796;DHT22;2924;51.458;7.046;2022-08-21T10:02:25;29.60;83.90
5796;DHT22;2924;51.458;7.046;2022-08-21T10:05:17;29.00;84.60
5796;DHT22;2924;51.458;7.046;2022-08-21T10:07:39;28.80;85.30
5796;DHT22;2924;51.458;7.046;2022-08-21T10:20:56;28.90;85.70
5796;DHT22;2924;51.458;7.046;2022-08-21T10:31:08;29.70;84.40
5796;DHT22;2924;51.458;7.046;2022-08-21T10:33:52;29.80;84.60
5796;DHT22;2924;51.458;7.046;2022-08-21T10:39:33;29.60;83.80
5796;DHT22;2924;51.458;7.046;2022-08-21T10:42:27;30.00;84.50
5796;DHT22;2924;51.458;7.046;2022-08-21T10:48:13;31.30;81.70
5796;DHT22;2924;51.458;7.046;2022-08-21T10:50:59;31.60;81.20
5796;DHT22;2924;51.458;7.046;2022-08-21T10:54:17;31.70;82.10
5796;DHT22;2924;51.458;7.046;2022-08-21T10:56:41;31.30;81.40
5796;DHT22;2924;51.458;7.046;2022-08-21T10:59:28;31.50;80.60
5796;DHT22;2924;51.458;7.046;2022-08-21T11:05:05;31.60;80.40
5796;DHT22;2924;51.458;7.046;2022-08-21T11:07:39;31.30;79.10
5796;DHT22;2924;51.458;7.046;2022-08-21T11:10:18;31.20;80.20
5796;DHT22;2924;51.458;7.046;2022-08-21T11:13:03;31.00;79.60
5796;DHT22;2924;51.458;7.046;2022-08-21T11:15:39;31.20;80.20
5796;DHT22;2924;51.458;7.046;2022-08-21T11:18:37;31.00;79.40
5796;DHT22;2924;51.458;7.046;2022-08-21T11:23:46;31.30;80.40
5796;DHT22;2924;51.458;7.046;2022-08-21T11:26:18;31.50;79.60
5796;DHT22;2924;51.458;7.046;2022-08-21T11:28:54;31.70;80.00
5796;DHT22;2924;51.458;7.046;2022-08-21T11:31:50;31.50;79.80
5796;DHT22;2924;51.458;7.046;2022-08-21T11:37:11;30.90;80.50
5796;DHT22;2924;51.458;7.046;2022-08-21T11:42:57;30.90;80.80
5796;DHT22;2924;51.458;7.046;2022-08-21T11:51:21;29.80;80.80
5796;DHT22;2924;51.458;7.046;2022-08-21T11:56:32;28.70;82.40
5796;DHT22;2924;51.458;7.046;2022-08-21T11:59:02;29.10;83.20
5796;DHT22;2924;51.458;7.046;2022-08-21T12:01:37;29.70;81.60
5796;DHT22;2924;51.458;7.046;2022-08-21T12:04:32;30.00;81.60
5796;DHT22;2924;51.458;7.046;2022-08-21T12:06:56;30.50;81.10
5796;DHT22;2924;51.458;7.046;2022-08-21T12:12:10;31.70;79.10
5796;DHT22;2924;51.458;7.046;2022-08-21T12:14:45;31.30;79.30
5796;DHT22;2924;51.458;7.046;2022-08-21T12:17:23;30.50;79.90
5796;DHT22;2924;51.458;7.046;2022-08-21T12:20:23;30.30;80.20
5796;DHT22;2924;51.458;7.046;2022-08-21T12:25:59;30.20;80.60
5796;DHT22;2924;51.458;7.046;2022-08-21T12:28:27;30.80;80.70
5796;DHT22;2924;51.458;7.046;2022-08-21T12:30:54;31.20;79.30
5796;DHT22;2924;51.458;7.046;2022-08-21T12:33:32;31.20;80.30
5796;DHT22;2924;51.458;7.046;2022-08-21T12:36:21;31.50;79.60
5796;DHT22;2924;51.458;7.046;2022-08-21T12:39:01;31.30;79.20
5796;DHT22;2924;51.458;7.046;2022-08-21T12:41:32;31.30;79.60
5796;DHT22;2924;51.458;7.046;2022-08-21T12:44:07;31.30;79.50
5796;DHT22;2924;51.458;7.046;2022-08-21T12:46:39;31.00;79.30
5796;DHT22;2924;51.458;7.046;2022-08-21T12:49:26;30.80;80.40
5796;DHT22;2924;51.458;7.046;2022-08-21T12:52:19;30.40;79.10
5796;DHT22;2924;51.458;7.046;2022-08-21T12:54:45;30.00;80.60
5796;DHT22;2924;51.458;7.046;2022-08-21T12:57:24;30.40;80.00
5796;DHT22;2924;51.458;7.046;2022-08-21T12:59:57;30.70;80.00
5796;DHT22;2924;51.458;7.046;2022-08-21T13:02:28;30.80;80.20
5796;DHT22;2924;51.458;7.046;2022-08-21T13:04:55;31.30;79.90
5796;DHT22;2924;51.458;7.046;2022-08-21T13:07:32;31.50;79.60
5796;DHT22;2924;51.458;7.046;2022-08-21T13:10:16;31.90;79.30
5796;DHT22;2924;51.458;7.046;2022-08-21T13:12:43;32.20;78.20
5796;DHT22;2924;51.458;7.046;2022-08-21T13:15:11;32.40;79.10
5796;DHT22;2924;51.458;7.046;2022-08-21T13:17:42;32.60;77.60
5796;DHT22;2924;51.458;7.046;2022-08-21T13:20:25;32.70;77.70
5796;DHT22;2924;51.458;7.046;2022-08-21T13:22:51;32.30;78.00
5796;DHT22;2924;51.458;7.046;2022-08-21T13:25:20;32.20;78.10
5796;DHT22;2924;51.458;7.046;2022-08-21T13:28:10;32.20;76.60
5796;DHT22;2924;51.458;7.046;2022-08-21T13:30:43;32.10;77.10
5796;DHT22;2924;51.458;7.046;2022-08-21T13:33:12;31.90;76.70
5796;DHT22;2924;51.458;7.046;2022-08-21T13:36:07;31.50;77.50
5796;DHT22;2924;51.458;7.046;2022-08-21T13:38:35;31.10;77.80
5796;DHT22;2924;51.458;7.046;2022-08-21T13:41:08;31.50;79.10
5796;DHT22;2924;51.458;7.046;2022-08-21T13:43:37;31.50;78.20
5796;DHT22;2924;51.458;7.046;2022-08-21T13:46:09;32.10;77.20
5796;DHT22;2924;51.458;7.046;2022-08-21T13:48:36;32.20;77.00
5796;DHT22;2924;51.458;7.046;2022-08-21T13:51:03;31.90;76.60
5796;DHT22;2924;51.458;7.046;2022-08-21T13:55:55;31.50;77.30
5796;DHT22;2924;51.458;7.046;2022-08-21T13:58:44;31.80;76.60
5796;DHT22;2924;51.458;7.046;2022-08-21T14:03:54;32.90;75.70
5796;DHT22;2924;51.458;7.046;2022-08-21T14:06:25;33.10;75.40
5796;DHT22;2924;51.458;7.046;2022-08-21T14:09:14;33.00;75.30
5796;DHT22;2924;51.458;7.046;2022-08-21T14:11:49;32.10;76.30
5796;DHT22;2924;51.458;7.046;2022-08-21T14:14:25;31.70;76.70
5796;DHT22;2924;51.458;7.046;2022-08-21T14:16:55;31.50;76.60
5796;DHT22;2924;51.458;7.046;2022-08-21T14:19:26;31.30;76.70
5796;DHT22;2924;51.458;7.046;2022-08-21T14:21:52;31.20;77.00
5796;DHT22;2924;51.458;7.046;2022-08-21T14:26:54;30.70;76.70
5796;DHT22;2924;51.458;7.046;2022-08-21T14:29:23;30.20;77.40
5796;DHT22;2924;51.458;7.046;2022-08-21T14:31:55;29.80;77.50
5796;DHT22;2924;51.458;7.046;2022-08-21T14:34:27;29.50;78.20
5796;DHT22;2924;51.458;7.046;2022-08-21T14:36:55;29.70;79.10
5796;DHT22;2924;51.458;7.046;2022-08-21T14:39:21;29.70;79.00
5796;DHT22;2924;51.458;7.046;2022-08-21T14:41:48;29.50;78.60
5796;DHT22;2924;51.458;7.046;2022-08-21T14:44:18;29.40;78.70
5796;DHT22;2924;51.458;7.046;2022-08-21T14:46:45;29.30;79.30
5796;DHT22;2924;51.458;7.046;2022-08-21T14:49:11;29.20;80.30
5796;DHT22;2924;51.458;7.046;2022-08-21T14:51:37;29.20;78.50
5796;DHT22;2924;51.458;7.046;2022-08-21T14:54:05;28.90;78.30
5796;DHT22;2924;51.458;7.046;2022-08-21T14:56:31;28.90;78.50
5796;DHT22;2924;51.458;7.046;2022-08-21T14:59:03;29.10;79.20
5796;DHT22;2924;51.458;7.046;2022-08-21T15:01:30;29.20;78.90
5796;DHT22;2924;51.458;7.046;2022-08-21T15:03:57;30.00;78.50
5796;DHT22;2924;51.458;7.046;2022-08-21T15:06:23;31.00;77.90
5796;DHT22;2924;51.458;7.046;2022-08-21T15:08:48;31.90;76.00
5796;DHT22;2924;51.458;7.046;2022-08-21T15:11:23;32.40;75.20
5796;DHT22;2924;51.458;7.046;2022-08-21T15:13:56;33.00;75.80
5796;DHT22;2924;51.458;7.046;2022-08-21T15:16:24;33.10;74.70
5796;DHT22;2924;51.458;7.046;2022-08-21T15:18:49;33.70;75.40
5796;DHT22;2924;51.458;7.046;2022-08-21T15:21:15;34.20;74.70
5796;DHT22;2924;51.458;7.046;2022-08-21T15:23:41;34.40;73.70
5796;DHT22;2924;51.458;7.046;2022-08-21T15:26:07;34.80;73.30
5796;DHT22;2924;51.458;7.046;2022-08-21T15:28:34;34.80;72.70
5796;DHT22;2924;51.458;7.046;2022-08-21T15:31:00;34.60;73.20
5796;DHT22;2924;51.458;7.046;2022-08-21T15:33:27;34.20;72.00
5796;DHT22;2924;51.458;7.046;2022-08-21T15:35:52;34.10;73.40
5796;DHT22;2924;51.458;7.046;2022-08-21T15:38:18;34.30;73.40
5796;DHT22;2924;51.458;7.046;2022-08-21T15:40:44;34.30;72.70
5796;DHT22;2924;51.458;7.046;2022-08-21T15:43:27;34.10;72.70
5796;DHT22;2924;51.458;7.046;2022-08-21T15:45:54;34.30;72.40
5796;DHT22;2924;51.458;7.046;2022-08-21T15:48:20;34.50;72.10
5796;DHT22;2924;51.458;7.046;2022-08-21T15:50:47;34.30;71.50
5796;DHT22;2924;51.458;7.046;2022-08-21T15:53:13;34.30;71.40
5796;DHT22;2924;51.458;7.046;2022-08-21T15:55:40;34.20;71.60
5796;DHT22;2924;51.458;7.046;2022-08-21T15:58:06;34.30;71.80
5796;DHT22;2924;51.458;7.046;2022-08-21T16:00:35;34.10;72.70
5796;DHT22;2924;51.458;7.046;2022-08-21T16:03:04;33.50;73.40
5796;DHT22;2924;51.458;7.046;2022-08-21T16:05:30;32.90;73.60
5796;DHT22;2924;51.458;7.046;2022-08-21T16:07:57;32.00;74.10
5796;DHT22;2924;51.458;7.046;2022-08-21T16:10:24;31.60;75.10
5796;DHT22;2924;51.458;7.046;2022-08-21T16:13:03;31.20;75.60
5796;DHT22;2924;51.458;7.046;2022-08-21T16:15:29;30.60;75.60
5796;DHT22;2924;51.458;7.046;2022-08-21T16:17:55;30.00;75.70
5796;DHT22;2924;51.458;7.046;2022-08-21T16:20:27;29.50;76.20
5796;DHT22;2924;51.458;7.046;2022-08-21T16:22:54;29.30;76.70
5796;DHT22;2924;51.458;7.046;2022-08-21T16:25:21;29.10;77.70
5796;DHT22;2924;51.458;7.046;2022-08-21T16:27:54;29.00;78.30
5796;DHT22;2924;51.458;7.046;2022-08-21T16:30:21;28.80;78.50
5796;DHT22;2924;51.458;7.046;2022-08-21T16:32:47;28.50;78.80
5796;DHT22;2924;51.458;7.046;2022-08-21T16:35:16;28.20;78.70
5796;DHT22;2924;51.458;7.046;2022-08-21T16:37:43;27.80;79.00
5796;DHT22;2924;51.458;7.046;2022-08-21T16:40:09;27.60;79.30
5796;DHT22;2924;51.458;7.046;2022-08-21T16:42:36;27.30;79.40
5796;DHT22;2924;51.458;7.046;2022-08-21T16:45:10;27.10;80.10
5796;DHT22;2924;51.458;7.046;2022-08-21T16:47:36;27.00;80.30
5796;DHT22;2924;51.458;7.046;2022-08-21T16:50:02;26.80;80.70
5796;DHT22;2924;51.458;7.046;2022-08-21T16:52:29;26.70;81.00
5796;DHT22;2924;51.458;7.046;2022-08-21T16:54:55;26.50;81.20
5796;DHT22;2924;51.458;7.046;2022-08-21T16:57:21;26.30;80.90
5796;DHT22;2924;51.458;7.046;2022-08-21T16:59:47;26.20;81.60
5796;DHT22;2924;51.458;7.046;2022-08-21T17:02:37;26.10;81.90
5796;DHT22;2924;51.458;7.046;2022-08-21T17:05:04;25.90;81.90
5796;DHT22;2924;51.458;7.046;2022-08-21T17:07:31;25.60;82.00
5796;DHT22;2924;51.458;7.046;2022-08-21T17:09:57;25.50;82.30
5796;DHT22;2924;51.458;7.046;2022-08-21T17:12:23;25.30;82.40
5796;DHT22;2924;51.458;7.046;2022-08-21T17:14:50;25.20;82.60
5796;DHT22;2924;51.458;7.046;2022-08-21T17:17:16;25.10;82.80
5796;DHT22;2924;51.458;7.046;2022-08-21T17:19:42;25.00;82.70
5796;DHT22;2924;51.458;7.046;2022-08-21T17:22:09;24.80;82.50
5796;DHT22;2924;51.458;7.046;2022-08-21T17:24:35;24.70;82.10
5796;DHT22;2924;51.458;7.046;2022-08-21T17:27:02;24.50;82.50